Airfield :
LOGIN :

Register | Disclaimer

   EN    FR    IT 

 










Legend :    VFR   Marginal VFR   IFR   Intensive IFR   Very Intensive IFR
Visi :
Ceiling :
>= 8 km
>= 3000ft
5 to 8 km
1000 to 3000 ft
1500m to 5 km
500 to 1000 ft
800 to 1500m
200 to 500 ft
< 800m
< 200 ft
Symbols :   Thunderstorms  Fog  Heavy snow  Heavy precipitations  Wind > 20 kt
SIGMETs :     Misc.  Thunderstorms  Icing  Turbulence  Mountain Waves  Volcanic Ashes






- Airport Elevation : 425 ft
- IATA code : DTM


EDLW - Dortmund

CURRENT METAR :
  • 082050Z 22020G32KT 9000 -RA SCT019 BKN024 BKN029 07/05 Q0998

EXPIRED METARs :
  • 082020Z 22017KT 9999 FEW025 08/05 Q0998
  • 081950Z 21018KT CAVOK 08/04 Q0998
  • 081920Z 22016KT CAVOK 08/04 Q0999
  • 081850Z 22016KT CAVOK 08/04 Q0999
  • 081820Z 22015KT 9999 FEW023 08/05 Q0999

TAF TAF EDLW
Valid from the 08 at 18:00 until the 09 at 18:00 UTC


081700Z 0818/0918 22015G25KT 9999 SCT025
PROB30
TEMPO 0820/0903 22020G35KT SHRA BKN025CB
TEMPO 0906/0910 SHRA BKN025CB
TEMPO 0910/0918 SHRA BKN012CB
BECMG 0911/0914 28010KT



MET'MAP, your aeronautical weather chart ! - Copyright ORBIFLY December 2007 - Disclaimer

ORBIFLY MET'MAP TEAM :

Programming & Development : Alexandra Zaïnal
Concept & original design : Baudouin d'Aumeries
Assistance for programming : Marc-Olivier Méhu
Technical & hardware support : Manuel Goepfert

Contact : metmap@orbifly.com




SOURCES & CREDITS :

   NOAA